Time;durP1;ratioP1;P1;durP2;ratioP2;P2;SDS_P1;SDS_P2;PMS_P1;PMS_P2;Temp;Humidity;BMP_temperature;BMP_pressure;BME280_temperature;BME280_humidity;BME280_pressure;Samples;Min_cycle;Max_cycle;Signal;HPM_P1;HPM_P2
2023/01/30 00:00:19;;;;;;;19.00;8.63;;;6.80;99.90;;;;;;4804236;29;20054;-89
2023/01/30 00:02:44;;;;;;;15.13;8.52;;;6.30;99.90;;;;;;4811784;29;20058;-84
2023/01/30 00:05:10;;;;;;;19.00;9.25;;;8.20;99.90;;;;;;4798074;29;20055;-81
2023/01/30 00:07:35;;;;;;;20.17;9.27;;;8.00;99.90;;;;;;4814530;29;20495;-81
2023/01/30 00:10:01;;;;;;;18.60;8.63;;;7.70;99.90;;;;;;4810314;29;20050;-86
2023/01/30 00:12:27;;;;;;;20.33;9.30;;;6.20;99.90;;;;;;4815388;29;20062;-89
2023/01/30 00:14:53;;;;;;;15.88;8.00;;;6.30;99.90;;;;;;4813052;29;20058;-92
2023/01/30 00:17:18;;;;;;;19.45;9.25;;;6.30;99.90;;;;;;4809955;29;20122;-91
2023/01/30 00:19:48;;;;;;;17.35;8.50;;;6.90;99.90;;;;;;4829741;29;20098;-85
2023/01/30 00:22:13;;;;;;;16.13;8.05;;;6.50;99.90;;;;;;4817114;29;20099;-91
2023/01/30 00:24:39;;;;;;;14.77;8.20;;;6.30;99.90;;;;;;4812740;29;20137;-88
2023/01/30 00:27:05;;;;;;;12.85;7.95;;;7.70;99.90;;;;;;4807566;29;20066;-85
2023/01/30 00:29:30;;;;;;;18.95;7.35;;;6.30;99.90;;;;;;4796882;29;20058;-84
2023/01/30 00:31:56;;;;;;;16.77;7.20;;;7.20;99.90;;;;;;4811046;29;20549;-83
2023/01/30 00:34:21;;;;;;;11.18;6.70;;;6.50;99.90;;;;;;4804578;29;20389;-86
2023/01/30 00:36:47;;;;;;;17.85;7.35;;;8.00;99.90;;;;;;4788970;29;20155;-82
2023/01/30 00:39:14;;;;;;;13.90;6.22;;;8.10;99.90;;;;;;4818483;29;20086;-83
2023/01/30 00:47:08;;;;;;;13.63;6.72;;;6.50;99.90;;;;;;4809714;29;20141;-89
2023/01/30 00:49:35;;;;;;;16.02;5.50;;;6.40;99.90;;;;;;4810832;29;20145;-92
2023/01/30 00:52:02;;;;;;;12.13;5.35;;;6.40;99.90;;;;;;4788395;29;20051;-87
2023/01/30 00:54:27;;;;;;;17.52;6.25;;;7.70;99.90;;;;;;4813691;29;20057;-86
2023/01/30 00:56:53;;;;;;;18.98;7.70;;;7.80;99.90;;;;;;4809937;29;20058;-91
2023/01/30 00:59:18;;;;;;;12.55;5.47;;;6.50;99.90;;;;;;4811692;29;21973;-95
2023/01/30 01:01:44;;;;;;;13.63;5.53;;;6.40;99.90;;;;;;4797766;29;20073;-82
2023/01/30 01:04:10;;;;;;;14.52;5.45;;;7.60;99.90;;;;;;4806754;29;20123;-87
2023/01/30 01:06:36;;;;;;;15.38;5.75;;;7.10;99.90;;;;;;4801367;29;20058;-80
2023/01/30 01:09:03;;;;;;;16.92;4.85;;;8.10;99.90;;;;;;4811923;29;20145;-86
2023/01/30 01:11:29;;;;;;;12.65;4.93;;;7.10;99.90;;;;;;4810972;29;20089;-80
2023/01/30 01:13:57;;;;;;;12.10;4.80;;;6.10;99.90;;;;;;4796446;29;20086;-91
2023/01/30 01:16:23;;;;;;;11.93;4.80;;;6.30;99.90;;;;;;4807725;29;20059;-82
2023/01/30 01:18:51;;;;;;;17.88;4.75;;;6.40;99.90;;;;;;4808919;29;20414;-83
2023/01/30 01:21:17;;;;;;;8.88;4.32;;;7.70;99.90;;;;;;4807061;29;20067;-82
2023/01/30 01:23:43;;;;;;;14.10;4.88;;;8.20;99.90;;;;;;4801986;29;20621;-81
2023/01/30 01:26:09;;;;;;;9.27;4.78;;;6.30;99.90;;;;;;4802839;29;20066;-87
2023/01/30 01:28:35;;;;;;;10.68;4.00;;;6.30;99.90;;;;;;4809971;29;20050;-92
2023/01/30 01:31:10;;;;;;;10.82;3.75;;;6.10;99.90;;;;;;4809135;29;20096;-93
2023/01/30 01:33:35;;;;;;;7.68;3.85;;;6.30;99.90;;;;;;4811025;29;20046;-84
2023/01/30 01:36:01;;;;;;;7.05;3.50;;;6.20;99.90;;;;;;4807149;29;20097;-87
2023/01/30 01:38:27;;;;;;;10.07;3.28;;;6.30;99.90;;;;;;4807780;29;20062;-83
2023/01/30 01:41:02;;;;;;;12.05;5.03;;;6.30;99.90;;;;;;4806357;29;20059;-83
2023/01/30 01:43:36;;;;;;;10.30;4.60;;;6.40;99.90;;;;;;4807371;29;20047;-83
2023/01/30 01:46:05;;;;;;;;;;;7.90;99.90;;;;;;4809032;29;20054;-82
2023/01/30 01:48:45;;;;;;;11.55;2.85;;;6.40;99.90;;;;;;4806790;29;19933;-82
2023/01/30 01:51:17;;;;;;;8.77;4.13;;;6.40;99.90;;;;;;4784615;29;20086;-82
2023/01/30 01:53:53;;;;;;;9.20;3.85;;;7.20;99.90;;;;;;4801681;29;20129;-82
2023/01/30 01:56:20;;;;;;;7.78;3.58;;;6.40;99.90;;;;;;4797905;29;20074;-83
2023/01/30 01:58:54;;;;;;;9.15;4.22;;;6.30;99.90;;;;;;4799670;29;20067;-82
2023/01/30 02:01:20;;;;;;;15.02;4.55;;;6.40;99.90;;;;;;4804929;29;20119;-82
2023/01/30 02:03:50;;;;;;;13.63;4.75;;;8.10;99.90;;;;;;4808725;29;20747;-82
2023/01/30 02:06:17;;;;;;;15.57;4.82;;;6.50;99.90;;;;;;4806567;29;20408;-88
2023/01/30 02:08:48;;;;;;;15.50;5.22;;;8.30;99.90;;;;;;4810166;29;20058;-91
2023/01/30 02:11:17;;;;;;;20.60;5.68;;;7.70;99.90;;;;;;4813131;29;20136;-84
2023/01/30 02:13:45;;;;;;;21.23;5.60;;;6.40;99.90;;;;;;4806340;29;20047;-89
2023/01/30 02:16:10;;;;;;;17.23;5.25;;;6.00;99.90;;;;;;4810355;29;20063;-90
2023/01/30 02:18:39;;;;;;;18.42;5.38;;;6.50;99.90;;;;;;4799423;29;20047;-84
2023/01/30 02:21:50;;;;;;;15.75;5.28;;;8.40;99.90;;;;;;4813930;29;20054;-82
2023/01/30 02:24:50;;;;;;;23.45;5.55;;;6.50;99.90;;;;;;4791343;29;20496;-90
2023/01/30 02:27:27;;;;;;;31.02;5.68;;;6.60;99.90;;;;;;4793420;29;20111;-82
2023/01/30 02:29:59;;;;;;;14.45;4.30;;;6.60;99.90;;;;;;4807288;29;20084;-83
2023/01/30 02:32:38;;;;;;;14.40;4.30;;;5.40;99.90;;;;;;4800168;29;20531;-82
2023/01/30 02:35:27;;;;;;;15.38;4.22;;;6.60;99.90;;;;;;4807219;29;20067;-84
2023/01/30 02:38:21;;;;;;;16.17;4.47;;;6.80;99.90;;;;;;4809607;29;20059;-81
2023/01/30 02:40:56;;;;;;;25.58;5.07;;;6.70;99.90;;;;;;4809662;29;20054;-83
2023/01/30 02:44:04;;;;;;;23.75;4.65;;;6.60;99.90;;;;;;4789721;29;20061;-92
2023/01/30 02:46:38;;;;;;;17.80;4.18;;;6.60;99.90;;;;;;4811143;29;20058;-86
2023/01/30 02:49:37;;;;;;;16.42;4.60;;;6.60;99.90;;;;;;4795924;29;20057;-82
2023/01/30 02:52:05;;;;;;;23.48;4.45;;;6.70;99.90;;;;;;4788280;29;20043;-82
2023/01/30 02:54:31;;;;;;;26.23;5.43;;;6.60;99.90;;;;;;4805041;29;20054;-85
2023/01/30 02:56:58;;;;;;;23.52;4.57;;;8.00;99.90;;;;;;4790267;29;20069;-84
2023/01/30 02:59:36;;;;;;;34.97;5.43;;;6.70;99.90;;;;;;4794451;29;20458;-85
2023/01/30 03:02:05;;;;;;;27.10;5.80;;;6.70;99.90;;;;;;4788053;29;20108;-83
2023/01/30 03:04:46;;;;;;;14.35;3.53;;;6.70;99.90;;;;;;4812684;29;20061;-83
2023/01/30 03:07:21;;;;;;;25.45;3.83;;;8.20;99.90;;;;;;4788738;29;20059;-83
2023/01/30 03:10:08;;;;;;;19.20;4.38;;;8.40;99.90;;;;;;4803129;29;20051;-84
2023/01/30 03:13:05;;;;;;;26.80;4.20;;;6.80;99.90;;;;;;4787837;29;20066;-83
2023/01/30 03:15:36;;;;;;;20.73;4.95;;;6.80;99.90;;;;;;4794275;29;20141;-83
2023/01/30 03:18:03;;;;;;;31.27;5.22;;;7.00;99.90;;;;;;4804528;29;20103;-82
2023/01/30 03:20:30;;;;;;;26.85;4.00;;;6.80;99.90;;;;;;4810722;29;20058;-81
2023/01/30 03:22:56;;;;;;;24.77;3.95;;;6.80;99.90;;;;;;4791563;29;20081;-83
2023/01/30 03:25:25;;;;;;;18.60;3.60;;;6.70;99.90;;;;;;4810899;29;20082;-85
2023/01/30 03:27:53;;;;;;;20.05;3.83;;;6.80;99.90;;;;;;4791392;29;20090;-90
2023/01/30 03:30:19;;;;;;;29.95;4.10;;;6.70;99.90;;;;;;4795241;29;20047;-87
2023/01/30 03:32:45;;;;;;;25.90;3.78;;;6.70;99.90;;;;;;4807037;29;20131;-83
2023/01/30 03:35:11;;;;;;;24.55;4.03;;;6.70;99.90;;;;;;4798010;29;20145;-81
2023/01/30 03:37:37;;;;;;;19.88;4.00;;;7.90;99.90;;;;;;4805624;29;20108;-82
2023/01/30 03:40:03;;;;;;;16.67;3.17;;;7.30;99.90;;;;;;4808049;29;20142;-81
2023/01/30 03:42:29;;;;;;;22.05;3.45;;;6.60;99.90;;;;;;4810035;29;20605;-82
2023/01/30 03:44:55;;;;;;;24.73;4.82;;;8.20;99.90;;;;;;4809097;29;20130;-84
2023/01/30 03:47:21;;;;;;;14.57;3.30;;;6.70;99.90;;;;;;4808610;29;20144;-82
2023/01/30 03:49:46;;;;;;;13.70;3.13;;;6.90;99.90;;;;;;4811813;29;20392;-82
2023/01/30 03:52:12;;;;;;;20.50;3.28;;;7.10;99.90;;;;;;4814288;29;20050;-82
2023/01/30 03:54:37;;;;;;;18.40;2.72;;;8.00;99.90;;;;;;4796995;29;20818;-82
2023/01/30 03:57:03;;;;;;;21.15;3.58;;;6.60;99.90;;;;;;4814888;29;20445;-82
2023/01/30 03:59:29;;;;;;;19.98;3.40;;;8.30;99.90;;;;;;4811755;29;20562;-81
2023/01/30 04:01:55;;;;;;;18.55;3.40;;;6.50;99.90;;;;;;4794357;29;20062;-86
2023/01/30 04:04:21;;;;;;;23.58;4.53;;;8.10;99.90;;;;;;4808754;29;20110;-82
2023/01/30 04:06:46;;;;;;;21.75;3.50;;;6.50;99.90;;;;;;4814941;29;20050;-83
2023/01/30 04:09:12;;;;;;;32.15;4.28;;;6.50;99.90;;;;;;4808522;29;20138;-82
2023/01/30 04:11:38;;;;;;;18.88;3.45;;;6.50;99.90;;;;;;4808600;29;20054;-86
2023/01/30 04:14:03;;;;;;;23.85;4.43;;;8.00;99.90;;;;;;4798084;29;20057;-82
2023/01/30 04:16:29;;;;;;;22.90;3.70;;;6.40;99.90;;;;;;4811495;29;20058;-85
2023/01/30 04:18:55;;;;;;;21.80;3.65;;;8.00;99.90;;;;;;4808700;29;20038;-82
2023/01/30 04:21:20;;;;;;;33.13;3.33;;;7.40;99.90;;;;;;4808037;29;20145;-83
2023/01/30 04:23:46;;;;;;;20.23;4.20;;;6.20;99.90;;;;;;4805218;29;20520;-83
2023/01/30 04:26:12;;;;;;;26.05;4.00;;;6.30;99.90;;;;;;4815505;29;20074;-80
2023/01/30 04:28:39;;;;;;;29.25;4.68;;;6.30;99.90;;;;;;4808926;29;20501;-84
2023/01/30 04:31:05;;;;;;;28.25;4.80;;;7.20;99.90;;;;;;4807199;29;20057;-87
2023/01/30 04:33:34;;;;;;;28.52;4.97;;;6.30;99.90;;;;;;4795859;29;20047;-83
2023/01/30 04:36:01;;;;;;;23.33;4.13;;;6.20;99.90;;;;;;4791821;29;20065;-81
2023/01/30 04:38:27;;;;;;;30.85;4.82;;;6.30;99.90;;;;;;4788643;29;20172;-81
2023/01/30 04:40:54;;;;;;;20.67;4.07;;;6.30;99.90;;;;;;4809085;29;20058;-81
2023/01/30 04:43:22;;;;;;;25.77;4.93;;;8.20;99.90;;;;;;4793289;29;20191;-83
2023/01/30 04:45:49;;;;;;;18.75;3.22;;;7.50;99.90;;;;;;4811338;29;20053;-80
2023/01/30 04:48:15;;;;;;;26.40;4.13;;;6.70;99.90;;;;;;4811966;29;20050;-82
2023/01/30 04:50:42;;;;;;;18.75;3.15;;;7.80;99.90;;;;;;4793419;29;20154;-85
2023/01/30 04:53:09;;;;;;;20.48;4.25;;;6.20;99.90;;;;;;4793758;29;20134;-84
2023/01/30 04:55:35;;;;;;;24.92;4.30;;;6.50;99.90;;;;;;4810284;29;20074;-83
2023/01/30 04:58:01;;;;;;;19.73;3.45;;;6.10;99.90;;;;;;4807849;29;20589;-89
2023/01/30 05:00:27;;;;;;;20.65;3.60;;;6.10;99.90;;;;;;4807351;29;20043;-89
2023/01/30 05:02:54;;;;;;;22.73;4.47;;;6.00;99.90;;;;;;4807298;29;20107;-88
2023/01/30 05:05:21;;;;;;;28.50;4.47;;;6.00;99.90;;;;;;4804022;29;20085;-85
2023/01/30 05:07:47;;;;;;;18.92;3.33;;;5.80;99.90;;;;;;4803795;29;20138;-84
2023/01/30 05:10:13;;;;;;;23.63;3.78;;;6.00;99.90;;;;;;4803029;29;20051;-81
2023/01/30 05:12:39;;;;;;;17.60;3.08;;;7.60;99.90;;;;;;4801361;29;20463;-81
2023/01/30 05:15:05;;;;;;;27.10;5.00;;;6.60;99.90;;;;;;4805256;29;20058;-81
2023/01/30 05:17:31;;;;;;;26.58;5.20;;;6.00;99.90;;;;;;4805368;29;20047;-82
2023/01/30 05:19:57;;;;;;;26.98;4.28;;;6.00;99.90;;;;;;4800297;29;20134;-86
2023/01/30 05:22:23;;;;;;;24.25;4.13;;;7.30;99.90;;;;;;4808919;29;20137;-85
2023/01/30 05:24:49;;;;;;;21.70;3.28;;;5.90;99.90;;;;;;4790115;29;20150;-89
2023/01/30 05:27:14;;;;;;;42.97;5.40;;;5.90;99.90;;;;;;4812614;29;20054;-91
2023/01/30 05:29:40;;;;;;;20.88;4.00;;;5.80;99.90;;;;;;4809205;29;20083;-88
2023/01/30 05:32:06;;;;;;;20.70;4.00;;;5.80;99.90;;;;;;4806474;29;20055;-86
2023/01/30 05:34:32;;;;;;;37.30;5.18;;;5.20;99.90;;;;;;4805806;29;20191;-83
2023/01/30 05:37:00;;;;;;;28.65;5.20;;;5.70;99.90;;;;;;4805044;29;20050;-82
2023/01/30 05:39:25;;;;;;;28.05;4.40;;;6.80;99.90;;;;;;4808985;29;20057;-83
2023/01/30 05:41:51;;;;;;;26.38;4.35;;;5.80;99.90;;;;;;4809897;29;20062;-83
2023/01/30 05:44:17;;;;;;;28.33;4.63;;;7.60;99.90;;;;;;4812018;29;20050;-82
2023/01/30 05:46:42;;;;;;;30.23;5.47;;;5.80;99.90;;;;;;4810338;29;20110;-85
2023/01/30 05:49:08;;;;;;;32.45;4.07;;;5.80;99.90;;;;;;4810628;29;20133;-82
2023/01/30 05:51:34;;;;;;;36.40;4.80;;;4.80;99.90;;;;;;4796708;29;20089;-86
2023/01/30 05:53:59;;;;;;;34.53;5.32;;;5.80;99.90;;;;;;4795907;29;20054;-82
2023/01/30 05:56:25;;;;;;;23.08;4.60;;;5.70;99.90;;;;;;4809832;29;20057;-82
2023/01/30 05:58:55;;;;;;;29.95;5.25;;;6.90;99.90;;;;;;4812725;29;21688;-89
2023/01/30 06:01:21;;;;;;;26.90;4.22;;;5.80;99.90;;;;;;4813202;29;20063;-90
2023/01/30 06:03:47;;;;;;;33.42;7.07;;;7.50;99.90;;;;;;4814707;29;20058;-90
2023/01/30 06:06:13;;;;;;;18.80;4.38;;;5.70;99.90;;;;;;4809104;29;20538;-81
2023/01/30 06:08:39;;;;;;;24.08;4.20;;;5.80;99.90;;;;;;4815682;29;20048;-81
2023/01/30 06:11:08;;;;;;;30.42;4.65;;;7.20;99.90;;;;;;4811540;29;20197;-81
2023/01/30 06:13:34;;;;;;;27.95;4.03;;;7.20;99.90;;;;;;4813571;29;20077;-84
2023/01/30 06:15:59;;;;;;;30.63;5.35;;;6.10;99.90;;;;;;4814295;29;20097;-83
2023/01/30 06:18:25;;;;;;;25.08;3.35;;;5.90;99.90;;;;;;4795076;29;20465;-80
2023/01/30 06:20:52;;;;;;;27.35;4.43;;;5.90;99.90;;;;;;4795298;29;20108;-82
2023/01/30 06:23:19;;;;;;;30.45;4.53;;;5.90;99.90;;;;;;4811579;29;20051;-80
2023/01/30 06:25:46;;;;;;;26.80;4.15;;;7.20;99.90;;;;;;4813094;29;20084;-82
2023/01/30 06:28:13;;;;;;;37.35;4.70;;;6.00;99.90;;;;;;4804515;29;20561;-80
2023/01/30 06:30:40;;;;;;;27.92;4.05;;;7.50;99.90;;;;;;4813512;29;20058;-81
2023/01/30 06:33:06;;;;;;;34.90;4.57;;;6.00;99.90;;;;;;4796562;29;20145;-83
2023/01/30 06:35:32;;;;;;;32.45;4.93;;;6.10;99.90;;;;;;4813237;29;20057;-81
2023/01/30 06:37:58;;;;;;;35.55;4.70;;;6.00;99.90;;;;;;4808321;29;20042;-83
2023/01/30 06:40:23;;;;;;;28.98;4.45;;;7.90;99.90;;;;;;4810600;29;20047;-84
2023/01/30 06:42:49;;;;;;;27.83;4.40;;;6.50;99.90;;;;;;4812331;29;20160;-85
2023/01/30 06:45:17;;;;;;;28.38;4.28;;;6.00;99.90;;;;;;4809758;29;20042;-84
2023/01/30 06:47:48;;;;;;;29.80;4.57;;;7.60;99.90;;;;;;4793941;29;20070;-87
2023/01/30 06:50:14;;;;;;;27.75;5.57;;;7.80;99.90;;;;;;4797319;29;20419;-81
2023/01/30 06:52:42;;;;;;;33.28;4.97;;;6.10;99.90;;;;;;4148156;29;10000870;-80
2023/01/30 06:55:08;;;;;;;30.77;3.83;;;6.10;99.90;;;;;;4807524;29;20146;-80
2023/01/30 06:57:34;;;;;;;31.90;5.68;;;6.10;99.90;;;;;;4804787;29;20108;-80
2023/01/30 07:00:00;;;;;;;36.15;5.97;;;6.40;99.90;;;;;;4791001;29;20450;-82
2023/01/30 07:02:33;;;;;;;29.27;4.80;;;7.60;99.90;;;;;;4810499;29;20063;-85
2023/01/30 07:04:59;;;;;;;29.88;5.05;;;6.00;99.90;;;;;;4813472;29;20060;-89
2023/01/30 07:07:24;;;;;;;29.45;5.55;;;6.00;99.90;;;;;;4793574;29;20703;-91
2023/01/30 07:09:50;;;;;;;21.77;4.75;;;6.00;99.90;;;;;;4807788;29;20061;-80
2023/01/30 07:12:15;;;;;;;26.88;4.00;;;7.20;99.90;;;;;;4801562;29;20067;-80
2023/01/30 07:14:41;;;;;;;25.77;4.90;;;6.10;99.90;;;;;;4800983;29;20082;-80
2023/01/30 07:17:07;;;;;;;26.50;4.43;;;7.90;99.90;;;;;;4807214;29;20107;-81
2023/01/30 07:19:32;;;;;;;21.02;4.15;;;6.10;99.90;;;;;;4799995;29;20134;-81
2023/01/30 07:21:58;;;;;;;22.65;4.18;;;6.10;99.90;;;;;;4804508;29;20710;-82
2023/01/30 07:24:23;;;;;;;22.92;4.45;;;6.10;99.90;;;;;;4788736;29;20488;-81
2023/01/30 07:26:49;;;;;;;30.27;4.97;;;6.10;99.90;;;;;;4798767;29;20058;-81
2023/01/30 07:29:15;;;;;;;30.08;5.10;;;6.00;99.90;;;;;;4789756;29;20125;-87
2023/01/30 07:31:40;;;;;;;37.33;4.95;;;6.10;99.90;;;;;;4804574;29;20496;-89
2023/01/30 07:34:06;;;;;;;33.90;4.72;;;5.90;99.90;;;;;;4808179;29;20526;-87
2023/01/30 07:36:33;;;;;;;38.72;6.28;;;6.80;99.90;;;;;;4790249;29;20055;-89
2023/01/30 07:39:00;;;;;;;28.75;6.30;;;7.80;99.90;;;;;;4810601;29;20050;-80
2023/01/30 07:41:26;;;;;;;32.80;6.10;;;6.10;99.90;;;;;;4801270;29;20165;-82
2023/01/30 07:43:52;;;;;;;26.00;4.45;;;6.10;99.90;;;;;;4799696;29;20070;-80
2023/01/30 07:46:17;;;;;;;25.25;5.38;;;7.40;99.90;;;;;;4804755;29;20464;-83
2023/01/30 07:48:44;;;;;;;36.28;5.80;;;6.00;99.90;;;;;;4801968;29;20054;-85
2023/01/30 07:51:10;;;;;;;27.60;6.03;;;6.10;99.90;;;;;;4805585;29;20146;-82
2023/01/30 07:53:35;;;;;;;28.83;4.90;;;6.60;99.90;;;;;;4809524;29;20145;-80
2023/01/30 07:56:13;;;;;;;28.23;5.32;;;6.10;99.90;;;;;;4809042;29;20444;-82
2023/01/30 07:58:38;;;;;;;28.00;4.47;;;6.10;99.90;;;;;;4811838;29;20135;-80
2023/01/30 08:01:04;;;;;;;28.25;5.38;;;6.10;99.90;;;;;;4803710;29;20089;-81
2023/01/30 08:03:30;;;;;;;30.52;4.28;;;6.20;99.90;;;;;;4807645;29;20042;-81
2023/01/30 08:05:56;;;;;;;24.67;4.45;;;6.20;99.90;;;;;;4811676;29;20065;-85
2023/01/30 08:08:21;;;;;;;26.73;4.45;;;6.20;99.90;;;;;;4806333;29;20050;-86
2023/01/30 08:10:48;;;;;;;34.17;4.55;;;7.80;99.90;;;;;;4807755;29;20053;-81
2023/01/30 08:13:14;;;;;;;33.67;4.10;;;6.20;99.90;;;;;;4805580;29;20081;-80
2023/01/30 08:15:39;;;;;;;22.70;4.32;;;6.00;99.90;;;;;;4803048;29;20134;-86
2023/01/30 08:18:08;;;;;;;19.80;3.20;;;8.20;99.90;;;;;;4816369;29;20124;-85
2023/01/30 08:20:35;;;;;;;30.42;4.15;;;6.30;99.90;;;;;;4789365;29;20522;-83
2023/01/30 08:23:01;;;;;;;17.95;3.88;;;6.20;99.90;;;;;;4806105;29;20077;-82
2023/01/30 08:25:27;;;;;;;33.67;4.75;;;6.40;99.90;;;;;;4811417;29;20899;-85
2023/01/30 08:27:53;;;;;;;29.00;3.70;;;6.30;99.90;;;;;;4809537;29;20161;-85
2023/01/30 08:30:21;;;;;;;32.42;5.50;;;7.80;99.90;;;;;;4803799;29;20134;-86
2023/01/30 08:32:47;;;;;;;31.33;5.50;;;6.30;99.90;;;;;;4814911;29;20460;-86
2023/01/30 08:35:13;;;;;;;23.27;4.00;;;6.30;99.90;;;;;;4815881;29;20051;-83
2023/01/30 08:37:40;;;;;;;23.90;4.45;;;6.30;99.90;;;;;;4814062;29;20059;-88
2023/01/30 08:40:07;;;;;;;24.98;3.42;;;6.40;99.90;;;;;;4811652;29;20050;-86
2023/01/30 08:42:32;;;;;;;26.83;4.55;;;6.30;99.90;;;;;;4810598;29;20051;-81
2023/01/30 08:44:58;;;;;;;25.90;5.07;;;8.10;99.90;;;;;;4807993;29;20128;-85
2023/01/30 08:47:24;;;;;;;29.33;5.03;;;6.30;99.90;;;;;;4812467;29;20086;-83
2023/01/30 08:49:51;;;;;;;28.85;4.63;;;8.20;99.90;;;;;;4804274;29;20058;-82
2023/01/30 08:52:20;;;;;;;24.30;4.88;;;8.00;99.90;;;;;;4810076;29;20479;-82
2023/01/30 08:54:45;;;;;;;28.55;4.80;;;6.40;99.90;;;;;;4794811;29;20059;-82
2023/01/30 08:57:13;;;;;;;28.52;4.13;;;6.40;99.90;;;;;;4809435;29;20136;-83
2023/01/30 08:59:39;;;;;;;25.10;4.95;;;6.30;99.90;;;;;;4791911;29;20051;-83
2023/01/30 09:02:05;;;;;;;28.50;4.70;;;6.90;99.90;;;;;;4793107;29;20054;-81
2023/01/30 09:04:31;;;;;;;29.52;3.55;;;7.80;99.90;;;;;;4811811;29;20772;-80
2023/01/30 09:06:57;;;;;;;31.30;5.18;;;6.50;99.90;;;;;;4793426;29;20055;-79
2023/01/30 09:09:22;;;;;;;28.17;4.97;;;6.50;99.90;;;;;;4805602;29;20057;-82
2023/01/30 09:11:49;;;;;;;31.45;5.30;;;6.60;99.90;;;;;;4794301;29;20474;-80
2023/01/30 09:14:18;;;;;;;32.97;5.63;;;6.50;99.90;;;;;;4809685;29;20406;-81
2023/01/30 09:16:45;;;;;;;28.40;4.90;;;8.10;99.90;;;;;;4793417;29;20050;-80
2023/01/30 09:19:11;;;;;;;31.42;4.05;;;6.60;99.90;;;;;;4811253;29;20047;-83
2023/01/30 09:21:37;;;;;;;21.48;4.63;;;7.20;99.90;;;;;;4814560;29;20556;-80
2023/01/30 09:24:04;;;;;;;26.33;4.22;;;6.70;99.90;;;;;;4814480;29;20054;-80
2023/01/30 09:26:29;;;;;;;27.15;4.57;;;6.70;99.90;;;;;;4807791;29;20107;-80
2023/01/30 09:28:55;;;;;;;28.05;5.13;;;6.70;99.90;;;;;;4810115;29;20063;-81
2023/01/30 09:31:21;;;;;;;26.45;3.97;;;6.70;99.90;;;;;;4814867;29;20412;-84
2023/01/30 09:33:46;;;;;;;29.05;4.93;;;6.80;99.90;;;;;;4809095;29;20046;-80
2023/01/30 09:36:13;;;;;;;23.70;4.43;;;6.90;99.90;;;;;;4803728;29;20074;-85
2023/01/30 09:38:39;;;;;;;26.75;4.57;;;7.60;99.90;;;;;;4798310;29;20052;-88
2023/01/30 09:41:18;;;;;;;29.40;4.50;;;6.60;99.90;;;;;;4814824;29;20057;-86
2023/01/30 09:44:29;;;;;;;27.05;4.00;;;8.10;99.90;;;;;;4811224;29;20062;-80
2023/01/30 09:47:09;;;;;;;22.88;5.07;;;6.50;99.90;;;;;;4811167;29;20077;-80
2023/01/30 09:49:49;;;;;;;30.70;5.40;;;6.60;99.90;;;;;;4810466;29;20054;-82
2023/01/30 09:52:41;;;;;;;24.30;3.78;;;6.90;99.90;;;;;;4813395;29;20522;-84
2023/01/30 09:55:20;;;;;;;36.50;6.18;;;6.60;99.90;;;;;;4816223;29;20058;-85
2023/01/30 09:57:47;;;;;;;21.83;3.83;;;6.50;99.90;;;;;;4809255;29;20572;-85
2023/01/30 10:00:31;;;;;;;20.60;4.10;;;6.60;99.90;;;;;;4814054;29;20129;-85
2023/01/30 10:03:18;;;;;;;30.55;4.40;;;6.70;99.90;;;;;;4819171;29;20058;-85
2023/01/30 10:06:04;;;;;;;41.65;5.82;;;7.00;99.90;;;;;;4794160;29;20061;-81
2023/01/30 10:08:56;;;;;;;42.30;5.50;;;7.30;99.90;;;;;;4814793;29;20058;-79
2023/01/30 10:11:42;;;;;;;30.98;5.97;;;6.60;99.90;;;;;;4814508;29;20054;-82
2023/01/30 10:14:30;;;;;;;34.17;5.55;;;6.70;99.90;;;;;;4815803;29;20057;-83
2023/01/30 10:17:26;;;;;;;27.95;4.47;;;6.70;99.90;;;;;;4821997;29;20053;-80
2023/01/30 10:20:30;;;;;;;22.65;3.97;;;6.70;99.90;;;;;;4816226;29;20133;-81
2023/01/30 10:23:07;;;;;;;33.92;6.63;;;6.90;99.90;;;;;;4806694;29;20051;-80
2023/01/30 10:25:55;;;;;;;34.15;5.10;;;6.90;99.90;;;;;;4806934;29;20059;-83
2023/01/30 10:28:29;;;;;;;31.55;6.25;;;6.90;99.90;;;;;;4804055;29;20062;-79
2023/01/30 10:31:12;;;;;;;13.00;2.60;;;7.80;99.90;;;;;;4807168;29;20043;-79
2023/01/30 10:34:00;;;;;;;16.50;2.47;;;6.30;99.90;;;;;;4816474;29;20081;-78
2023/01/30 10:36:39;;;;;;;9.50;1.85;;;6.00;99.90;;;;;;4130325;29;10001450;-78
2023/01/30 10:39:19;;;;;;;7.47;0.93;;;6.70;99.90;;;;;;4804861;29;20077;-80
2023/01/30 10:41:53;;;;;;;11.77;1.50;;;5.60;99.90;;;;;;4808396;29;20627;-79
2023/01/30 10:44:21;;;;;;;8.00;1.70;;;6.90;99.90;;;;;;4806661;29;20046;-79
2023/01/30 10:46:54;;;;;;;11.05;1.00;;;5.40;99.90;;;;;;4802009;29;20142;-79
2023/01/30 10:49:25;;;;;;;14.43;2.53;;;5.30;99.90;;;;;;4811988;29;20061;-81
2023/01/30 10:51:58;;;;;;;11.07;1.42;;;5.30;99.90;;;;;;4811731;29;20058;-79
2023/01/30 10:54:37;;;;;;;18.60;2.10;;;6.00;99.90;;;;;;4806881;29;20062;-79
2023/01/30 10:57:31;;;;;;;16.17;2.75;;;5.40;99.90;;;;;;4805965;29;20059;-80
2023/01/30 11:00:04;;;;;;;18.25;3.08;;;6.10;99.90;;;;;;4808340;29;20058;-79
2023/01/30 11:02:38;;;;;;;16.58;3.80;;;5.50;99.90;;;;;;4805367;29;20054;-79
2023/01/30 11:05:25;;;;;;;15.73;2.63;;;6.30;99.90;;;;;;4806631;29;20085;-79
2023/01/30 11:07:51;;;;;;;21.63;3.22;;;5.70;99.90;;;;;;4802541;29;20058;-80
2023/01/30 11:10:25;;;;;;;20.98;3.53;;;5.80;99.90;;;;;;4809580;29;20419;-79
2023/01/30 11:13:13;;;;;;;15.80;1.95;;;5.50;99.90;;;;;;4793354;29;20059;-79
2023/01/30 11:15:40;;;;;;;16.50;2.97;;;5.90;99.90;;;;;;4806524;29;20808;-80
2023/01/30 11:18:07;;;;;;;15.57;2.53;;;6.00;99.90;;;;;;4806043;29;20097;-79
2023/01/30 11:20:39;;;;;;;14.65;1.98;;;6.20;99.90;;;;;;4796721;29;20353;-80
2023/01/30 11:23:26;;;;;;;19.45;2.78;;;6.20;99.90;;;;;;4809371;29;20096;-86
2023/01/30 11:25:56;;;;;;;16.42;2.10;;;6.40;99.90;;;;;;4809075;29;20522;-80
2023/01/30 11:28:23;;;;;;;17.02;2.53;;;8.20;99.90;;;;;;4814038;29;20138;-81
2023/01/30 11:30:58;;;;;;;16.65;2.67;;;6.50;99.90;;;;;;4803768;29;20058;-80
2023/01/30 11:33:33;;;;;;;11.05;2.08;;;7.40;99.90;;;;;;4811142;29;20058;-80
2023/01/30 11:36:05;;;;;;;11.57;1.98;;;6.50;99.90;;;;;;4808736;29;20478;-80
2023/01/30 11:38:33;;;;;;;18.95;3.28;;;6.40;99.90;;;;;;4814044;29;20058;-79
2023/01/30 11:41:08;;;;;;;12.07;1.65;;;6.50;99.90;;;;;;4811796;29;20384;-86
2023/01/30 11:43:36;;;;;;;14.70;2.40;;;8.00;99.90;;;;;;4793620;29;20111;-86
2023/01/30 11:46:02;;;;;;;23.73;3.60;;;6.50;99.90;;;;;;4810086;29;20071;-79
2023/01/30 11:48:31;;;;;;;18.45;3.50;;;6.00;99.90;;;;;;4815465;29;20103;-86
2023/01/30 11:51:03;;;;;;;14.60;2.85;;;7.70;99.90;;;;;;4807844;29;20043;-82
2023/01/30 11:53:35;;;;;;;10.35;1.67;;;6.50;99.90;;;;;;4808893;29;20098;-81
2023/01/30 11:56:19;;;;;;;11.98;1.95;;;8.30;99.90;;;;;;4812010;29;20439;-83
2023/01/30 11:58:57;;;;;;;11.75;2.67;;;8.30;99.90;;;;;;4808992;29;20147;-81
2023/01/30 12:01:27;;;;;;;13.45;2.05;;;7.00;99.90;;;;;;4810862;29;20058;-81
2023/01/30 12:03:55;;;;;;;10.30;2.20;;;6.70;99.90;;;;;;4812017;29;20500;-81
2023/01/30 12:06:35;;;;;;;18.38;2.80;;;7.00;99.90;;;;;;4808049;29;20050;-80
2023/01/30 12:09:02;;;;;;;14.48;1.90;;;6.50;99.90;;;;;;4809156;29;20065;-79
2023/01/30 12:11:43;;;;;;;10.50;1.75;;;6.70;99.90;;;;;;4795070;29;20054;-80
2023/01/30 12:14:28;;;;;;;20.08;2.42;;;7.20;99.90;;;;;;4815692;29;20150;-80
2023/01/30 12:17:13;;;;;;;13.32;2.15;;;6.70;99.90;;;;;;4814625;29;20055;-80
2023/01/30 12:19:48;;;;;;;23.70;2.85;;;6.60;99.90;;;;;;4793566;29;20086;-79
2023/01/30 12:22:31;;;;;;;19.67;3.30;;;8.50;99.90;;;;;;4810944;29;20093;-80
2023/01/30 12:24:59;;;;;;;22.92;4.05;;;6.70;99.90;;;;;;4809380;29;20043;-79
2023/01/30 12:27:37;;;;;;;16.55;3.38;;;6.60;99.90;;;;;;4808317;29;20061;-79
2023/01/30 12:30:19;;;;;;;24.10;3.58;;;6.70;99.90;;;;;;4805700;29;20066;-82
2023/01/30 12:32:44;;;;;;;14.45;2.80;;;6.70;99.90;;;;;;4813494;29;20059;-82
2023/01/30 12:35:15;;;;;;;22.17;4.20;;;8.20;99.90;;;;;;4812821;29;20057;-85
2023/01/30 12:38:07;;;;;;;20.42;3.72;;;6.70;99.90;;;;;;4813779;29;20047;-81
2023/01/30 12:40:39;;;;;;;19.95;3.88;;;6.80;99.90;;;;;;4811671;29;20058;-81
2023/01/30 12:43:20;;;;;;;28.88;3.97;;;6.90;99.90;;;;;;4800798;29;20500;-78
2023/01/30 12:46:04;;;;;;;20.02;3.53;;;6.90;99.90;;;;;;4798706;29;20066;-80
2023/01/30 12:48:40;;;;;;;13.50;2.67;;;7.00;99.90;;;;;;4793992;29;20308;-79
2023/01/30 12:51:29;;;;;;;27.13;4.22;;;7.00;99.90;;;;;;4810399;29;20768;-80
2023/01/30 12:54:22;;;;;;;19.98;3.15;;;7.00;99.90;;;;;;4806689;29;20563;-79
2023/01/30 12:57:19;;;;;;;24.63;4.07;;;7.00;99.90;;;;;;4807385;29;20055;-78
2023/01/30 13:00:03;;;;;;;14.75;3.17;;;7.00;99.90;;;;;;4807248;29;20499;-79
2023/01/30 13:02:45;;;;;;;17.60;3.00;;;7.10;99.90;;;;;;4809276;29;20526;-78
2023/01/30 13:05:26;;;;;;;24.48;4.90;;;7.10;99.90;;;;;;4796133;29;20050;-80
2023/01/30 13:08:09;;;;;;;25.70;3.15;;;8.70;99.90;;;;;;4808054;29;20058;-79
2023/01/30 13:10:43;;;;;;;19.80;3.63;;;7.00;99.90;;;;;;4811448;29;20046;-81